createdAt,value
2023-02-27T00:00:20.245Z,100471.59
2023-02-27T00:03:23.211Z,100482.09
2023-02-27T00:06:26.341Z,100484.16
2023-02-27T00:09:29.314Z,100478.03
2023-02-27T00:12:38.043Z,100480.66
2023-02-27T00:15:41.142Z,100481.03
2023-02-27T00:18:44.195Z,100492.25
2023-02-27T00:21:47.845Z,100497.72
2023-02-27T00:24:50.876Z,100500.66
2023-02-27T00:27:54.000Z,100490.34
2023-02-27T00:30:57.265Z,100477.94
2023-02-27T00:34:00.570Z,100484.44
2023-02-27T00:37:03.912Z,100484.44
2023-02-27T00:40:09.957Z,100478.56
2023-02-27T00:43:13.094Z,100486.91
2023-02-27T00:46:16.131Z,100484.28
2023-02-27T00:49:20.216Z,100479.50
2023-02-27T00:52:23.226Z,100492.03
2023-02-27T00:55:27.353Z,100481.47
2023-02-27T00:58:30.339Z,100492.38
2023-02-27T01:01:33.772Z,100479.19
2023-02-27T01:04:36.959Z,100484.41
2023-02-27T01:07:40.243Z,100488.53
2023-02-27T01:10:44.146Z,100489.78
2023-02-27T01:13:47.245Z,100482.19
2023-02-27T01:16:50.202Z,100489.47
2023-02-27T01:19:53.016Z,100492.88
2023-02-27T01:22:55.712Z,100485.34
2023-02-27T01:25:58.381Z,100481.41
2023-02-27T01:29:04.666Z,100492.66
2023-02-27T01:32:08.787Z,100486.41
2023-02-27T01:35:11.418Z,100498.69
2023-02-27T01:38:14.136Z,100510.25
2023-02-27T01:41:17.037Z,100499.72
2023-02-27T01:44:19.618Z,100510.25
2023-02-27T01:47:23.010Z,100516.38
2023-02-27T01:50:25.795Z,100529.25
2023-02-27T01:53:31.157Z,100532.44
2023-02-27T01:56:33.721Z,100518.78
2023-02-27T01:59:38.981Z,100515.03
2023-02-27T02:02:48.946Z,100519.13
2023-02-27T02:05:55.448Z,100532.72
2023-02-27T02:09:00.582Z,100531.13
2023-02-27T02:12:04.998Z,100528.28
2023-02-27T02:15:08.055Z,100538.59
2023-02-27T02:18:19.444Z,100538.38
2023-02-27T02:21:31.078Z,100546.22
2023-02-27T02:25:05.985Z,100543.03
2023-02-27T02:28:27.697Z,100542.94
2023-02-27T02:31:47.113Z,100557.31
2023-02-27T02:35:04.994Z,100549.53
2023-02-27T02:38:19.709Z,100552.25
2023-02-27T02:41:52.785Z,100569.00
2023-02-27T02:44:58.341Z,100563.97
2023-02-27T02:48:16.797Z,100570.00
2023-02-27T02:51:43.103Z,100573.44
2023-02-27T02:54:53.410Z,100569.88
2023-02-27T02:58:09.040Z,100577.50
2023-02-27T03:02:03.873Z,100573.72
2023-02-27T03:05:15.789Z,100584.84
2023-02-27T03:08:22.611Z,100579.19
2023-02-27T03:11:30.226Z,100583.16
2023-02-27T03:14:40.535Z,100592.38
2023-02-27T03:17:43.562Z,100597.38
2023-02-27T03:20:57.364Z,100588.16
2023-02-27T03:24:03.815Z,100586.13
2023-02-27T03:27:09.354Z,100600.81
2023-02-27T03:30:27.425Z,100601.81
2023-02-27T03:33:39.050Z,100616.50
2023-02-27T03:36:58.438Z,100612.53
2023-02-27T03:40:23.406Z,100614.13
2023-02-27T03:43:42.162Z,100609.91
2023-02-27T03:46:44.825Z,100609.47
2023-02-27T03:49:51.375Z,100594.53
2023-02-27T03:52:58.091Z,100598.66
2023-02-27T03:56:05.771Z,100595.34
2023-02-27T03:59:08.508Z,100598.19
2023-02-27T04:02:16.121Z,100601.03
2023-02-27T04:05:20.239Z,100611.28
2023-02-27T04:09:01.623Z,100607.88
2023-02-27T04:12:19.527Z,100609.34
2023-02-27T04:16:00.961Z,100601.25
2023-02-27T04:19:29.368Z,100608.31
2023-02-27T04:22:44.850Z,100605.94
2023-02-27T04:26:08.489Z,100617.44
2023-02-27T04:29:20.467Z,100609.81
2023-02-27T04:32:35.742Z,100616.34
2023-02-27T04:35:50.874Z,100620.78
2023-02-27T04:38:57.991Z,100635.19
2023-02-27T04:42:09.685Z,100630.75
2023-02-27T04:45:16.772Z,100639.78
2023-02-27T04:48:30.324Z,100651.06
2023-02-27T04:51:58.444Z,100635.00
2023-02-27T04:55:20.967Z,100642.06
2023-02-27T04:58:37.298Z,100645.25
2023-02-27T05:01:54.174Z,100633.97
2023-02-27T05:05:00.510Z,100643.66
2023-02-27T05:08:12.904Z,100646.50
2023-02-27T05:11:24.058Z,100652.19
2023-02-27T05:14:36.525Z,100657.66
2023-02-27T05:17:50.229Z,100664.94
2023-02-27T05:21:21.193Z,100652.44
2023-02-27T05:24:29.178Z,100654.25
2023-02-27T05:27:47.839Z,100667.91
2023-02-27T05:30:59.269Z,100674.50
2023-02-27T05:34:23.545Z,100665.84
2023-02-27T05:38:16.915Z,100672.91
2023-02-27T05:41:28.945Z,100676.56
2023-02-27T05:44:38.658Z,100686.78
2023-02-27T05:47:46.802Z,100689.50
2023-02-27T05:50:52.689Z,100700.31
2023-02-27T05:54:06.520Z,100703.63
2023-02-27T05:57:14.456Z,100694.50
2023-02-27T06:05:44.419Z,100732.44
2023-02-27T06:08:47.268Z,100730.25
2023-02-27T06:11:49.979Z,100735.25
2023-02-27T06:14:52.795Z,100741.41
2023-02-27T06:17:56.422Z,100751.75
2023-02-27T06:20:59.215Z,100757.19
2023-02-27T06:24:01.797Z,100748.63
2023-02-27T06:27:04.507Z,100753.41
2023-02-27T06:30:07.761Z,100758.41
2023-02-27T06:33:12.414Z,100760.28
2023-02-27T06:36:15.299Z,100780.44
2023-02-27T06:39:18.203Z,100770.03
2023-02-27T06:42:21.177Z,100779.38
2023-02-27T06:45:24.399Z,100766.19
2023-02-27T06:48:27.164Z,100777.84
2023-02-27T06:51:30.040Z,100773.00
2023-02-27T06:54:35.185Z,100767.50
2023-02-27T06:57:37.841Z,100774.75
2023-02-27T07:00:40.505Z,100783.34
2023-02-27T07:03:44.379Z,100778.75
2023-02-27T07:07:34.311Z,100784.69
2023-02-27T07:10:13.266Z,100783.03
2023-02-27T07:13:19.522Z,100788.34
2023-02-27T07:16:22.965Z,100807.28
2023-02-27T07:19:25.634Z,100807.38
2023-02-27T07:22:28.442Z,100800.75
2023-02-27T07:25:31.250Z,100811.13
2023-02-27T07:28:34.238Z,100821.22
2023-02-27T07:31:37.334Z,100828.31
2023-02-27T07:34:40.263Z,100814.69
2023-02-27T07:37:42.923Z,100837.75
2023-02-27T07:40:46.496Z,100834.06
2023-02-27T07:43:49.125Z,100833.16
2023-02-27T07:46:51.949Z,100839.34
2023-02-27T07:49:55.275Z,100841.97
2023-02-27T07:52:57.907Z,100852.72
2023-02-27T07:56:00.688Z,100849.88
2023-02-27T07:59:03.788Z,100849.72
2023-02-27T08:02:07.738Z,100856.97
2023-02-27T08:05:11.336Z,100863.25
2023-02-27T08:08:14.413Z,100862.94
2023-02-27T08:11:18.519Z,100870.84
2023-02-27T08:14:21.720Z,100866.84
2023-02-27T08:17:24.394Z,100873.66
2023-02-27T08:20:27.868Z,100879.09
2023-02-27T08:23:32.214Z,100880.22
2023-02-27T08:26:35.303Z,100872.50
2023-02-27T08:29:37.980Z,100884.81
2023-02-27T08:32:41.522Z,100892.72
2023-02-27T08:35:44.375Z,100895.56
2023-02-27T08:38:47.191Z,100896.06
2023-02-27T08:41:52.635Z,100888.16
2023-02-27T08:44:56.714Z,100911.09
2023-02-27T08:47:59.329Z,100903.03
2023-02-27T08:51:02.156Z,100907.75
2023-02-27T08:54:04.861Z,100905.91
2023-02-27T08:57:07.516Z,100907.13
2023-02-27T09:00:10.899Z,100910.06
2023-02-27T09:03:14.182Z,100927.28
2023-02-27T09:06:17.214Z,100920.53
2023-02-27T09:09:20.843Z,100927.75
2023-02-27T09:12:24.328Z,100939.50
2023-02-27T09:15:28.155Z,100939.56
2023-02-27T09:18:31.127Z,100929.69
2023-02-27T09:21:34.738Z,100935.53
2023-02-27T09:24:37.520Z,100934.22
2023-02-27T09:27:40.981Z,100951.44
2023-02-27T09:30:43.683Z,100937.56
2023-02-27T09:33:46.639Z,100956.41
2023-02-27T09:36:49.276Z,100958.31
2023-02-27T09:39:52.438Z,100957.38
2023-02-27T09:43:00.647Z,100968.72
2023-02-27T09:46:04.569Z,100974.16
2023-02-27T09:49:16.106Z,100981.94
2023-02-27T09:52:19.219Z,100981.22
2023-02-27T09:55:23.917Z,100981.16
2023-02-27T09:58:53.195Z,100979.56
2023-02-27T10:02:13.696Z,100989.63
2023-02-27T10:05:18.955Z,101002.44
2023-02-27T10:08:48.277Z,101013.75
2023-02-27T10:12:05.845Z,101012.75
2023-02-27T10:15:44.168Z,101015.50
2023-02-27T10:18:58.427Z,101016.81
2023-02-27T10:22:06.558Z,101019.56
2023-02-27T10:25:30.666Z,101017.50
2023-02-27T10:28:34.418Z,101031.19
2023-02-27T10:31:37.491Z,101019.53
2023-02-27T10:34:44.031Z,101021.94
2023-02-27T10:37:57.975Z,101024.22
2023-02-27T10:41:03.866Z,101024.91
2023-02-27T10:44:07.078Z,101037.28
2023-02-27T10:47:17.380Z,101033.84
2023-02-27T10:50:23.590Z,101031.56
2023-02-27T10:53:28.248Z,101042.06
2023-02-27T10:56:31.576Z,101028.47
2023-02-27T10:59:38.482Z,101040.53
2023-02-27T11:02:43.929Z,101028.75
2023-02-27T11:05:53.446Z,101023.97
2023-02-27T11:09:11.763Z,101028.44
2023-02-27T11:12:28.871Z,101036.84
2023-02-27T11:15:34.256Z,101040.59
2023-02-27T11:18:47.792Z,101036.59
2023-02-27T11:22:00.791Z,101028.72
2023-02-27T11:25:24.573Z,101034.16
2023-02-27T11:28:30.123Z,101030.84
2023-02-27T11:31:35.413Z,101033.06
2023-02-27T11:34:56.171Z,101052.13
2023-02-27T11:38:07.651Z,101045.63
2023-02-27T11:41:12.397Z,101043.59
2023-02-27T11:44:27.909Z,101050.84
2023-02-27T11:47:47.864Z,101054.03
2023-02-27T11:51:08.603Z,101049.03
2023-02-27T11:54:34.949Z,101055.97
2023-02-27T11:57:41.508Z,101048.31
2023-02-27T12:00:55.690Z,101043.66
2023-02-27T12:04:10.119Z,101040.72
2023-02-27T12:07:21.866Z,101042.81
2023-02-27T12:10:49.879Z,101037.78
2023-02-27T12:14:02.516Z,101036.69
2023-02-27T12:17:17.360Z,101037.75
2023-02-27T12:20:32.313Z,101038.00
2023-02-27T12:23:50.010Z,101037.81
2023-02-27T12:27:44.401Z,101043.03
2023-02-27T12:31:24.807Z,101037.50
2023-02-27T12:34:41.044Z,101049.09
2023-02-27T12:37:44.101Z,101055.25
2023-02-27T12:41:14.950Z,101058.78
2023-02-27T12:44:51.239Z,101052.56
2023-02-27T12:48:06.468Z,101060.25
2023-02-27T12:51:32.354Z,101060.56
2023-02-27T12:54:58.687Z,101063.00
2023-02-27T12:58:23.056Z,101063.69
2023-02-27T13:01:29.012Z,101076.50
2023-02-27T13:04:46.618Z,101068.41
2023-02-27T13:07:58.220Z,101078.09
2023-02-27T13:11:29.110Z,101078.66
2023-02-27T13:14:48.517Z,101081.72
2023-02-27T13:18:23.600Z,101090.47
2023-02-27T13:21:38.836Z,101097.22
2023-02-27T13:24:49.559Z,101087.28
2023-02-27T13:27:58.570Z,101091.03
2023-02-27T13:31:06.126Z,101100.44
2023-02-27T13:34:44.660Z,101103.19
2023-02-27T13:38:23.745Z,101102.22
2023-02-27T13:41:35.542Z,101103.66
2023-02-27T13:44:41.847Z,101108.91
2023-02-27T13:47:50.242Z,101103.19
2023-02-27T13:50:53.064Z,101122.16
2023-02-27T13:54:14.207Z,101125.22
2023-02-27T13:57:23.290Z,101122.66
2023-02-27T14:00:30.284Z,101121.97
2023-02-27T14:03:33.139Z,101120.81
2023-02-27T14:06:44.472Z,101131.16
2023-02-27T14:09:50.443Z,101124.66
2023-02-27T14:12:53.426Z,101133.19
2023-02-27T14:15:57.955Z,101137.13
2023-02-27T14:19:01.800Z,101139.44
2023-02-27T14:22:16.353Z,101152.66
2023-02-27T14:25:32.016Z,101155.28
2023-02-27T14:28:41.615Z,101155.06
2023-02-27T14:31:45.240Z,101151.63
2023-02-27T14:34:48.692Z,101159.53
2023-02-27T14:37:53.870Z,101159.09
2023-02-27T14:41:02.213Z,101170.72
2023-02-27T14:44:07.418Z,101167.63
2023-02-27T14:47:38.272Z,101174.63
2023-02-27T14:50:42.007Z,101180.13
2023-02-27T14:53:44.520Z,101175.44
2023-02-27T14:56:57.147Z,101182.88
2023-02-27T14:59:59.777Z,101187.41
2023-02-27T15:03:16.558Z,101191.06
2023-02-27T15:06:29.467Z,101196.41
2023-02-27T15:09:48.290Z,101204.44
2023-02-27T15:12:52.469Z,101206.88
2023-02-27T15:16:21.121Z,101210.84
2023-02-27T15:19:26.656Z,101215.09
2023-02-27T15:22:39.423Z,101236.63
2023-02-27T15:25:43.388Z,101241.78
2023-02-27T15:28:49.285Z,101233.13
2023-02-27T15:31:53.355Z,101240.34
2023-02-27T15:35:02.721Z,101247.09
2023-02-27T15:38:06.173Z,101258.28
2023-02-27T15:41:12.488Z,101264.59
2023-02-27T15:44:23.510Z,101264.91
2023-02-27T15:47:29.722Z,101264.47
2023-02-27T15:50:43.167Z,101265.03
2023-02-27T15:53:50.770Z,101272.78
2023-02-27T15:56:54.057Z,101278.72
2023-02-27T15:59:58.828Z,101279.97
2023-02-27T16:03:01.966Z,101282.47
2023-02-27T16:06:33.232Z,101275.72
2023-02-27T16:09:38.447Z,101289.38
2023-02-27T16:12:43.188Z,101288.34
2023-02-27T16:15:45.966Z,101295.63
2023-02-27T16:18:51.421Z,101296.25
2023-02-27T16:22:13.587Z,101303.63
2023-02-27T16:25:19.746Z,101300.75
2023-02-27T16:28:22.622Z,101304.22
2023-02-27T16:31:25.673Z,101305.63
2023-02-27T16:34:44.217Z,101311.16
2023-02-27T16:37:49.761Z,101313.72
2023-02-27T16:40:52.584Z,101319.75
2023-02-27T16:43:56.706Z,101311.31
2023-02-27T16:46:59.749Z,101320.56
2023-02-27T16:50:02.852Z,101327.69
2023-02-27T16:53:05.668Z,101334.75
2023-02-27T16:56:12.227Z,101337.25
2023-02-27T16:59:35.162Z,101338.31
2023-02-27T17:02:38.929Z,101338.53
2023-02-27T17:05:41.698Z,101337.13
2023-02-27T17:08:44.889Z,101344.00
2023-02-27T17:11:47.619Z,101344.78
2023-02-27T17:14:50.682Z,101344.72
2023-02-27T17:17:53.437Z,101338.06
2023-02-27T17:20:59.757Z,101338.88
2023-02-27T17:24:03.037Z,101346.22
2023-02-27T17:27:06.731Z,101347.66
2023-02-27T17:30:10.384Z,101347.94
2023-02-27T17:33:13.483Z,101337.53
2023-02-27T17:36:16.889Z,101349.22
2023-02-27T17:39:19.922Z,101353.44
2023-02-27T17:42:25.700Z,101354.84
2023-02-27T17:45:29.109Z,101366.97
2023-02-27T17:48:32.138Z,101360.13
2023-02-27T17:51:35.177Z,101374.03
2023-02-27T17:54:38.118Z,101372.22
2023-02-27T17:57:41.680Z,101381.28
2023-02-27T18:00:44.786Z,101379.88
2023-02-27T18:03:49.505Z,101384.53
2023-02-27T18:06:52.331Z,101394.88
2023-02-27T18:09:55.896Z,101386.25
2023-02-27T18:12:58.955Z,101393.53
2023-02-27T18:16:02.081Z,101401.75
2023-02-27T18:19:06.581Z,101403.16
2023-02-27T18:22:11.393Z,101396.75
2023-02-27T18:25:15.848Z,101410.69
2023-02-27T18:28:19.747Z,101404.28
2023-02-27T18:31:28.622Z,101408.94
2023-02-27T18:34:31.591Z,101415.34
2023-02-27T18:37:34.799Z,101425.00
2023-02-27T18:40:37.884Z,101419.19
2023-02-27T18:43:42.700Z,101422.41
2023-02-27T18:46:45.775Z,101418.78
2023-02-27T18:49:48.827Z,101414.94
2023-02-27T18:52:52.028Z,101428.84
2023-02-27T18:56:00.630Z,101432.88
2023-02-27T18:59:05.686Z,101435.28
2023-02-27T19:02:15.984Z,101430.47
2023-02-27T19:05:19.195Z,101432.06
2023-02-27T19:08:25.090Z,101446.34
2023-02-27T19:11:33.202Z,101453.41
2023-02-27T19:14:38.040Z,101460.31
2023-02-27T19:17:41.377Z,101464.53
2023-02-27T19:20:44.451Z,101446.25
2023-02-27T19:23:47.805Z,101447.03
2023-02-27T19:26:53.369Z,101450.72
2023-02-27T19:29:56.865Z,101459.16
2023-02-27T19:32:59.890Z,101456.94
2023-02-27T19:36:13.196Z,101453.75
2023-02-27T19:39:16.290Z,101452.34
2023-02-27T19:42:19.619Z,101453.00
2023-02-27T19:45:23.433Z,101445.97
2023-02-27T19:48:26.703Z,101455.59
2023-02-27T19:51:30.010Z,101453.22
2023-02-27T19:54:33.336Z,101452.81
2023-02-27T19:57:37.005Z,101448.59
2023-02-27T20:00:42.038Z,101461.47
2023-02-27T20:03:45.305Z,101458.84
2023-02-27T20:06:50.946Z,101469.50
2023-02-27T20:09:54.405Z,101469.88
2023-02-27T20:12:57.907Z,101464.66
2023-02-27T20:16:07.462Z,101471.53
2023-02-27T20:19:13.398Z,101471.13
2023-02-27T20:22:17.171Z,101470.53
2023-02-27T20:25:20.291Z,101469.72
2023-02-27T20:28:23.585Z,101475.56
2023-02-27T20:31:29.759Z,101473.34
2023-02-27T20:34:33.211Z,101477.56
2023-02-27T20:37:36.578Z,101483.00
2023-02-27T20:40:39.463Z,101491.66
2023-02-27T20:43:43.505Z,101490.22
2023-02-27T20:46:49.287Z,101491.25
2023-02-27T20:49:53.162Z,101489.03
2023-02-27T20:52:56.169Z,101491.47
2023-02-27T20:55:59.044Z,101484.41
2023-02-27T20:59:03.663Z,101490.66
2023-02-27T21:02:08.887Z,101501.69
2023-02-27T21:05:12.059Z,101510.72
2023-02-27T21:08:15.603Z,101512.97
2023-02-27T21:11:21.725Z,101507.53
2023-02-27T21:14:24.611Z,101492.25
2023-02-27T21:17:27.512Z,101490.22
2023-02-27T21:20:31.726Z,101493.06
2023-02-27T21:23:41.581Z,101495.47
2023-02-27T21:26:45.168Z,101488.84
2023-02-27T21:29:49.026Z,101472.97
2023-02-27T21:32:51.948Z,101474.59
2023-02-27T21:35:54.902Z,101481.81
2023-02-27T21:39:07.716Z,101480.78
2023-02-27T21:42:10.392Z,101484.38
2023-02-27T21:45:13.590Z,101497.06
2023-02-27T21:48:16.241Z,101508.72
2023-02-27T21:51:32.969Z,101512.50
2023-02-27T21:54:39.533Z,101509.88
2023-02-27T21:57:42.549Z,101521.16
2023-02-27T22:00:45.281Z,101529.00
2023-02-27T22:03:50.974Z,101513.94
2023-02-27T22:06:53.734Z,101513.31
2023-02-27T22:09:56.942Z,101518.75
2023-02-27T22:12:59.695Z,101527.75
2023-02-27T22:16:08.243Z,101535.00
2023-02-27T22:19:19.865Z,101531.97
2023-02-27T22:22:23.301Z,101524.69
2023-02-27T22:25:26.336Z,101545.38
2023-02-27T22:28:30.619Z,101550.59
2023-02-27T22:31:36.935Z,101552.34
2023-02-27T22:34:39.890Z,101550.94
2023-02-27T22:37:42.970Z,101560.38
2023-02-27T22:40:45.945Z,101569.25
2023-02-27T22:43:48.589Z,101562.34
2023-02-27T22:46:51.488Z,101546.84
2023-02-27T22:49:54.076Z,101541.66
2023-02-27T22:52:57.298Z,101541.47
2023-02-27T22:56:00.117Z,101525.03
2023-02-27T22:59:03.772Z,101510.56
2023-02-27T23:02:06.756Z,101514.59
2023-02-27T23:05:10.154Z,101521.59
2023-02-27T23:08:12.887Z,101511.38
2023-02-27T23:11:17.112Z,101521.16
2023-02-27T23:14:21.671Z,101523.56
2023-02-27T23:17:24.822Z,101522.56
2023-02-27T23:20:27.697Z,101523.56
2023-02-27T23:23:30.660Z,101523.13
2023-02-27T23:26:47.258Z,101516.25
2023-02-27T23:29:50.084Z,101535.50
2023-02-27T23:32:53.077Z,101532.25
2023-02-27T23:35:57.925Z,101530.84
2023-02-27T23:39:03.003Z,101539.59
2023-02-27T23:42:06.305Z,101533.81
2023-02-27T23:45:22.787Z,101542.44
2023-02-27T23:48:25.919Z,101539.59
2023-02-27T23:51:30.589Z,101533.03
2023-02-27T23:54:34.022Z,101548.53
2023-02-27T23:57:36.854Z,101549.97
